createdAt,value
2022-12-29T00:00:06.635Z,93903.06
2022-12-29T00:02:39.605Z,93908.06
2022-12-29T00:05:07.320Z,93903.69
2022-12-29T00:07:34.006Z,93893.63
2022-12-29T00:10:00.832Z,93891.75
2022-12-29T00:12:47.689Z,93888.31
2022-12-29T00:15:33.165Z,93879.22
2022-12-29T00:18:00.902Z,93889.88
2022-12-29T00:20:46.472Z,93883.97
2022-12-29T00:23:32.208Z,93896.78
2022-12-29T00:26:17.685Z,93894.13
2022-12-29T00:29:03.227Z,93886.31
2022-12-29T00:31:48.495Z,93901.53
2022-12-29T00:34:34.790Z,93889.78
2022-12-29T00:37:02.988Z,93886.66
2022-12-29T00:39:48.250Z,93883.06
2022-12-29T00:42:34.389Z,93883.22
2022-12-29T00:45:01.134Z,93879.63
2022-12-29T00:47:29.864Z,93876.94
2022-12-29T00:49:56.613Z,93882.44
2022-12-29T00:52:23.284Z,93880.69
2022-12-29T00:54:50.147Z,93879.59
2022-12-29T00:57:17.101Z,93880.38
2022-12-29T00:59:44.893Z,93886.81
2022-12-29T01:02:12.283Z,93887.13
2022-12-29T01:04:39.133Z,93887.59
2022-12-29T01:07:05.972Z,93878.19
2022-12-29T01:09:51.834Z,93897.63
2022-12-29T01:12:38.946Z,93898.72
2022-12-29T01:15:06.359Z,93900.44
2022-12-29T01:17:34.005Z,93906.25
2022-12-29T01:20:02.180Z,93910.00
2022-12-29T01:22:29.113Z,93897.94
2022-12-29T01:24:56.070Z,93905.94
2022-12-29T01:27:22.927Z,93900.75
2022-12-29T01:29:49.587Z,93899.34
2022-12-29T01:32:16.336Z,93902.63
2022-12-29T01:34:45.064Z,93891.19
2022-12-29T01:37:12.082Z,93902.97
2022-12-29T01:39:38.940Z,93898.56
2022-12-29T01:42:05.673Z,93894.66
2022-12-29T01:44:47.756Z,93899.66
2022-12-29T01:47:21.844Z,93900.28
2022-12-29T01:49:48.649Z,93907.97
2022-12-29T01:52:15.442Z,93904.03
2022-12-29T01:54:51.939Z,93900.28
2022-12-29T01:57:22.747Z,93900.28
2022-12-29T02:00:09.518Z,93907.78
2022-12-29T02:02:52.004Z,93896.34
2022-12-29T02:05:42.853Z,93890.25
2022-12-29T02:08:14.057Z,93892.13
2022-12-29T02:10:42.778Z,93893.38
2022-12-29T02:13:09.495Z,93889.78
2022-12-29T02:15:59.610Z,93886.50
2022-12-29T02:18:35.454Z,93889.19
2022-12-29T02:21:18.613Z,93886.97
2022-12-29T02:24:16.410Z,93885.84
2022-12-29T02:26:54.723Z,93888.22
2022-12-29T02:29:39.939Z,93889.31
2022-12-29T02:32:26.607Z,93885.56
2022-12-29T02:35:15.725Z,93882.88
2022-12-29T02:38:00.564Z,93883.97
2022-12-29T02:40:36.873Z,93881.97
2022-12-29T02:43:10.495Z,93875.84
2022-12-29T02:45:52.802Z,93869.75
2022-12-29T02:48:24.964Z,93867.56
2022-12-29T02:51:10.489Z,93876.63
2022-12-29T02:53:56.852Z,93871.31
2022-12-29T02:56:23.622Z,93872.53
2022-12-29T02:58:50.375Z,93870.34
2022-12-29T03:01:38.898Z,93864.72
2022-12-29T03:04:33.393Z,93860.94
2022-12-29T03:07:28.853Z,93862.22
2022-12-29T03:10:11.386Z,93860.03
2022-12-29T03:13:09.248Z,93857.66
2022-12-29T03:16:04.970Z,93855.16
2022-12-29T03:18:47.431Z,93854.38
2022-12-29T03:21:55.619Z,93842.94
2022-12-29T03:24:28.460Z,93840.44
2022-12-29T03:27:00.206Z,93837.78
2022-12-29T03:29:37.599Z,93822.91
2022-12-29T03:32:05.966Z,93830.41
2022-12-29T03:34:34.419Z,93825.09
2022-12-29T03:37:13.886Z,93831.97
2022-12-29T03:39:42.556Z,93825.09
2022-12-29T03:42:20.882Z,93831.34
2022-12-29T03:44:48.365Z,93839.03
2022-12-29T03:47:16.490Z,93842.47
2022-12-29T03:49:45.693Z,93835.09
2022-12-29T03:52:12.635Z,93838.56
2022-12-29T03:54:43.462Z,93840.75
2022-12-29T03:57:11.923Z,93836.97
2022-12-29T03:59:52.330Z,93839.34
2022-12-29T04:02:19.245Z,93832.59
2022-12-29T04:04:46.319Z,93827.59
2022-12-29T04:07:12.964Z,93822.41
2022-12-29T04:09:41.111Z,93818.97
2022-12-29T04:12:10.719Z,93816.00
2022-12-29T04:14:37.566Z,93826.31
2022-12-29T04:17:04.210Z,93827.44
2022-12-29T04:19:31.410Z,93833.22
2022-12-29T04:21:58.225Z,93825.53
2022-12-29T04:24:24.966Z,93826.31
2022-12-29T04:26:51.752Z,93821.94
2022-12-29T04:29:30.051Z,93824.94
2022-12-29T04:32:19.844Z,93817.25
2022-12-29T04:34:49.759Z,93818.81
2022-12-29T04:37:16.550Z,93812.06
2022-12-29T04:39:43.230Z,93807.97
2022-12-29T04:42:09.979Z,93816.13
2022-12-29T04:44:41.291Z,93813.59
2022-12-29T04:47:15.186Z,93815.78
2022-12-29T04:50:05.904Z,93815.00
2022-12-29T04:52:52.967Z,93824.72
2022-12-29T04:55:19.676Z,93826.09
2022-12-29T04:57:46.348Z,93824.09
2022-12-29T05:00:17.631Z,93827.06
2022-12-29T05:02:46.218Z,93829.09
2022-12-29T05:05:14.566Z,93835.03
2022-12-29T05:07:44.139Z,93843.66
2022-12-29T05:10:11.409Z,93845.19
2022-12-29T05:12:38.922Z,93845.81
2022-12-29T05:15:08.211Z,93837.34
2022-12-29T05:17:35.202Z,93841.25
2022-12-29T05:20:02.011Z,93829.06
2022-12-29T05:22:29.827Z,93829.06
2022-12-29T05:24:57.272Z,93825.44
2022-12-29T05:27:24.301Z,93838.56
2022-12-29T05:30:14.147Z,93836.22
2022-12-29T05:32:41.138Z,93839.50
2022-12-29T05:35:08.727Z,93835.25
2022-12-29T05:37:35.431Z,93832.75
2022-12-29T05:40:03.701Z,93829.63
2022-12-29T05:42:30.403Z,93839.00
2022-12-29T05:45:18.148Z,93845.41
2022-12-29T05:47:54.244Z,93848.69
2022-12-29T05:50:35.573Z,93850.06
2022-12-29T05:53:15.860Z,93848.19
2022-12-29T05:55:48.540Z,93856.97
2022-12-29T05:58:17.777Z,93853.34
2022-12-29T06:00:44.555Z,93851.78
2022-12-29T06:03:11.987Z,93854.72
2022-12-29T06:05:38.848Z,93841.75
2022-12-29T06:08:05.766Z,93833.47
2022-12-29T06:10:32.693Z,93827.66
2022-12-29T06:13:06.540Z,93831.09
2022-12-29T06:15:36.621Z,93826.88
2022-12-29T06:18:05.883Z,93827.97
2022-12-29T06:20:32.655Z,93840.34
2022-12-29T06:22:59.405Z,93837.06
2022-12-29T06:25:26.147Z,93855.03
2022-12-29T06:27:52.808Z,93850.66
2022-12-29T06:30:20.421Z,93851.88
2022-12-29T06:32:47.881Z,93837.31
2022-12-29T06:35:14.854Z,93825.13
2022-12-29T06:37:52.392Z,93814.19
2022-12-29T06:40:20.182Z,93812.72
2022-12-29T06:43:07.057Z,93841.53
2022-12-29T06:45:52.484Z,93837.63
2022-12-29T06:48:19.124Z,93838.72
2022-12-29T06:50:45.842Z,93823.25
2022-12-29T06:53:12.510Z,93812.00
2022-12-29T06:55:39.165Z,93807.94
2022-12-29T06:58:05.856Z,93794.78
2022-12-29T07:00:32.493Z,93795.75
2022-12-29T07:03:00.059Z,93801.06
2022-12-29T07:05:28.704Z,93797.84
2022-12-29T07:07:56.231Z,93797.69
2022-12-29T07:10:23.024Z,93796.63
2022-12-29T07:12:49.679Z,93804.13
2022-12-29T07:15:16.487Z,93813.50
2022-12-29T07:17:43.153Z,93819.25
2022-12-29T07:20:10.726Z,93828.44
2022-12-29T07:22:37.501Z,93842.59
2022-12-29T07:25:04.600Z,93830.00
2022-12-29T07:27:31.298Z,93836.88
2022-12-29T07:29:57.928Z,93844.84
2022-12-29T07:32:24.592Z,93839.53
2022-12-29T07:34:51.315Z,93851.97
2022-12-29T07:37:18.548Z,93846.19
2022-12-29T07:39:45.456Z,93843.59
2022-12-29T07:42:12.107Z,93833.47
2022-12-29T07:44:42.904Z,93841.53
2022-12-29T07:47:41.891Z,93848.78
2022-12-29T07:50:08.692Z,93843.63
2022-12-29T07:52:35.378Z,93843.63
2022-12-29T07:55:02.061Z,93844.25
2022-12-29T07:57:32.075Z,93842.06
2022-12-29T07:59:59.417Z,93841.28
2022-12-29T08:02:27.430Z,93836.28
2022-12-29T08:04:54.326Z,93836.91
2022-12-29T08:07:21.012Z,93843.16
2022-12-29T08:09:47.643Z,93856.63
2022-12-29T08:12:14.324Z,93848.16
2022-12-29T08:14:40.953Z,93852.84
2022-12-29T08:17:07.592Z,93847.69
2022-12-29T08:19:34.353Z,93850.03
2022-12-29T08:22:01.003Z,93861.50
2022-12-29T08:24:27.639Z,93864.81
2022-12-29T08:26:54.338Z,93863.84
2022-12-29T08:29:22.425Z,93860.56
2022-12-29T08:31:49.355Z,93866.84
2022-12-29T08:34:16.033Z,93876.88
2022-12-29T08:36:42.712Z,93873.78
2022-12-29T08:39:09.395Z,93870.66
2022-12-29T08:41:36.227Z,93872.06
2022-12-29T08:44:02.993Z,93863.31
2022-12-29T08:46:29.700Z,93862.53
2022-12-29T08:48:56.430Z,93857.03
2022-12-29T08:51:25.004Z,93862.97
2022-12-29T08:53:52.113Z,93860.19
2022-12-29T08:56:19.375Z,93842.94
2022-12-29T08:58:50.668Z,93843.56
2022-12-29T09:01:19.090Z,93839.28
2022-12-29T09:04:13.677Z,93846.91
2022-12-29T09:06:38.204Z,93863.00
2022-12-29T09:09:06.717Z,93846.06
2022-12-29T09:11:33.385Z,93861.91
2022-12-29T09:14:00.050Z,93856.25
2022-12-29T09:16:28.026Z,93861.28
2022-12-29T09:18:54.747Z,93853.97
2022-12-29T09:21:21.447Z,93840.94
2022-12-29T09:23:49.511Z,93862.13
2022-12-29T09:26:16.154Z,93862.78
2022-12-29T09:28:43.263Z,93869.34
2022-12-29T09:31:09.993Z,93872.47
2022-12-29T09:33:36.800Z,93864.53
2022-12-29T09:36:04.088Z,93866.22
2022-12-29T09:38:31.026Z,93868.03
2022-12-29T09:41:40.119Z,93876.69
2022-12-29T09:44:12.533Z,93878.78
2022-12-29T09:46:44.495Z,93864.94
2022-12-29T09:49:17.546Z,93869.94
2022-12-29T09:51:49.172Z,93864.44
2022-12-29T09:54:38.072Z,93874.31
2022-12-29T09:57:06.350Z,93871.81
2022-12-29T09:59:42.011Z,93878.47
2022-12-29T10:02:30.809Z,93882.34
2022-12-29T10:04:57.973Z,93875.44
2022-12-29T10:07:32.651Z,93874.38
2022-12-29T10:10:18.710Z,93860.56
2022-12-29T10:13:01.214Z,93867.94
2022-12-29T10:15:46.018Z,93871.56
2022-12-29T10:18:31.978Z,93866.69
2022-12-29T10:21:08.681Z,93859.13
2022-12-29T10:23:52.658Z,93850.63
2022-12-29T10:26:29.917Z,93847.63
2022-12-29T10:29:07.378Z,93851.47
2022-12-29T10:31:43.990Z,93853.81
2022-12-29T10:34:23.211Z,93855.31
2022-12-29T10:36:57.004Z,93852.72
2022-12-29T10:39:43.036Z,93849.53
2022-12-29T10:42:29.505Z,93846.22
2022-12-29T10:44:57.567Z,93838.19
2022-12-29T10:47:34.591Z,93831.84
2022-12-29T10:50:02.425Z,93838.09
2022-12-29T10:52:31.544Z,93832.63
2022-12-29T10:55:09.765Z,93831.84
2022-12-29T10:57:40.840Z,93836.75
2022-12-29T11:00:21.720Z,93835.38
2022-12-29T11:03:23.025Z,93830.84
2022-12-29T11:06:03.818Z,93838.88
2022-12-29T11:08:42.011Z,93833.72
2022-12-29T11:11:10.771Z,93834.81
2022-12-29T11:13:57.495Z,93834.97
2022-12-29T11:16:35.730Z,93839.28
2022-12-29T11:19:03.028Z,93838.50
2022-12-29T11:21:43.339Z,93845.28
2022-12-29T11:24:22.444Z,93847.31
2022-12-29T11:26:51.747Z,93846.06
2022-12-29T11:29:24.545Z,93849.06
2022-12-29T11:31:58.554Z,93847.94
2022-12-29T11:34:34.215Z,93850.16
2022-12-29T11:37:21.025Z,93859.47
2022-12-29T11:40:00.725Z,93849.09
2022-12-29T11:42:40.171Z,93853.53
2022-12-29T11:45:21.961Z,93856.22
2022-12-29T11:47:54.830Z,93856.03
2022-12-29T11:50:32.766Z,93846.56
2022-12-29T11:53:03.852Z,93849.69
2022-12-29T11:55:32.059Z,93842.75
2022-12-29T11:58:02.524Z,93841.72
2022-12-29T12:00:33.528Z,93840.94
2022-12-29T12:03:22.148Z,93841.09
2022-12-29T12:06:05.190Z,93839.34
2022-12-29T12:09:05.182Z,93841.22
2022-12-29T12:11:39.039Z,93833.03
2022-12-29T12:14:11.996Z,93833.50
2022-12-29T12:17:02.405Z,93830.72
2022-12-29T12:19:53.992Z,93810.69
2022-12-29T12:22:28.514Z,93816.28
2022-12-29T12:25:00.600Z,93805.72
2022-12-29T12:27:40.983Z,93804.16
2022-12-29T12:30:20.553Z,93811.63
2022-12-29T12:32:53.397Z,93811.75
2022-12-29T12:35:36.171Z,93809.06
2022-12-29T12:38:17.184Z,93809.84
2022-12-29T12:41:18.137Z,93805.16
2022-12-29T12:43:48.051Z,93808.28
2022-12-29T12:46:39.377Z,93811.75
2022-12-29T12:49:14.474Z,93805.16
2022-12-29T12:51:53.262Z,93809.59
2022-12-29T12:54:28.965Z,93810.28
2022-12-29T12:57:16.167Z,93802.59
2022-12-29T13:00:04.006Z,93806.50
2022-12-29T13:02:55.848Z,93814.59
2022-12-29T13:06:03.196Z,93815.13
2022-12-29T13:08:40.676Z,93802.66
2022-12-29T13:11:41.374Z,93809.00
2022-12-29T13:14:28.509Z,93814.56
2022-12-29T13:17:27.596Z,93803.94
2022-12-29T13:20:16.938Z,93813.91
2022-12-29T13:23:02.100Z,93807.22
2022-12-29T13:25:34.765Z,93804.06
2022-12-29T13:28:32.755Z,93813.34
2022-12-29T13:31:11.720Z,93814.13
2022-12-29T13:34:06.491Z,93806.09
2022-12-29T13:36:52.633Z,93817.13
2022-12-29T13:39:29.888Z,93804.06
2022-12-29T13:41:57.916Z,93806.75
2022-12-29T13:44:47.603Z,93813.34
2022-12-29T13:47:33.517Z,93814.44
2022-12-29T13:50:02.883Z,93812.56
2022-12-29T13:53:00.108Z,93815.69
2022-12-29T13:55:49.520Z,93819.13
2022-12-29T13:58:20.984Z,93815.78
2022-12-29T14:00:56.135Z,93811.22
2022-12-29T14:03:30.718Z,93815.13
2022-12-29T14:06:28.184Z,93803.66
2022-12-29T14:09:00.802Z,93806.16
2022-12-29T14:11:34.768Z,93804.28
2022-12-29T14:14:22.157Z,93797.41
2022-12-29T14:16:49.511Z,93802.59
2022-12-29T14:19:20.729Z,93799.94
2022-12-29T14:22:03.430Z,93795.13
2022-12-29T14:24:36.012Z,93797.91
2022-12-29T14:27:11.743Z,93798.09
2022-12-29T14:29:41.366Z,93804.44
2022-12-29T14:32:26.537Z,93802.22
2022-12-29T14:34:55.365Z,93807.34
2022-12-29T14:37:34.031Z,93811.00
2022-12-29T14:40:07.718Z,93809.09
2022-12-29T14:42:34.785Z,93805.38
2022-12-29T14:45:26.097Z,93811.50
2022-12-29T14:47:53.835Z,93812.63
2022-12-29T14:50:26.011Z,93810.72
2022-12-29T14:53:05.120Z,93808.50
2022-12-29T14:55:41.008Z,93808.50
2022-12-29T14:58:27.855Z,93801.94
2022-12-29T15:00:55.708Z,93799.41
2022-12-29T15:03:31.717Z,93795.19
2022-12-29T15:06:30.876Z,93798.63
2022-12-29T15:09:39.243Z,93796.50
2022-12-29T15:12:33.743Z,93792.47
2022-12-29T15:15:02.476Z,93792.22
2022-12-29T15:17:35.400Z,93791.28
2022-12-29T15:20:22.830Z,93796.06
2022-12-29T15:23:03.541Z,93790.91
2022-12-29T15:25:31.927Z,93787.78
2022-12-29T15:28:02.704Z,93800.38
2022-12-29T15:30:30.076Z,93797.41
2022-12-29T15:32:56.892Z,93797.88
2022-12-29T15:35:28.391Z,93796.31
2022-12-29T15:37:55.416Z,93787.41
2022-12-29T15:40:33.007Z,93795.84
2022-12-29T15:43:14.488Z,93798.22
2022-12-29T15:45:41.443Z,93808.56
2022-12-29T15:48:18.112Z,93804.00
2022-12-29T15:50:45.453Z,93807.91
2022-12-29T15:53:19.143Z,93802.91
2022-12-29T15:55:48.593Z,93817.69
2022-12-29T15:58:28.084Z,93812.09
2022-12-29T16:01:00.355Z,93808.50
2022-12-29T16:03:28.611Z,93807.59
2022-12-29T16:05:58.316Z,93810.44
2022-12-29T16:08:34.839Z,93810.75
2022-12-29T16:11:23.663Z,93807.94
2022-12-29T16:13:53.174Z,93814.06
2022-12-29T16:16:24.029Z,93808.09
2022-12-29T16:18:57.232Z,93817.03
2022-12-29T16:21:28.959Z,93819.19
2022-12-29T16:23:59.592Z,93817.75
2022-12-29T16:26:26.553Z,93820.75
2022-12-29T16:28:59.554Z,93822.31
2022-12-29T16:31:33.519Z,93821.53
2022-12-29T16:34:23.879Z,93826.09
2022-12-29T16:37:04.085Z,93827.53
2022-12-29T16:39:32.382Z,93823.16
2022-12-29T16:41:59.299Z,93825.53
2022-12-29T16:44:28.985Z,93838.00
2022-12-29T16:47:18.260Z,93832.50
2022-12-29T16:49:52.330Z,93837.72
2022-12-29T16:52:24.018Z,93834.56
2022-12-29T16:54:57.113Z,93833.50
2022-12-29T16:57:28.144Z,93832.72
2022-12-29T17:00:00.306Z,93825.25
2022-12-29T17:02:29.972Z,93833.56
2022-12-29T17:04:56.801Z,93834.53
2022-12-29T17:07:25.818Z,93832.81
2022-12-29T17:09:54.289Z,93838.47
2022-12-29T17:12:25.335Z,93836.91
2022-12-29T17:15:02.722Z,93831.44
2022-12-29T17:17:36.794Z,93836.91
2022-12-29T17:20:10.879Z,93837.69
2022-12-29T17:22:37.537Z,93839.25
2022-12-29T17:25:04.492Z,93844.41
2022-12-29T17:27:49.860Z,93844.38
2022-12-29T17:30:21.448Z,93834.50
2022-12-29T17:32:54.461Z,93836.50
2022-12-29T17:35:22.919Z,93832.72
2022-12-29T17:37:50.490Z,93839.78
2022-12-29T17:40:22.429Z,93840.25
2022-12-29T17:42:52.217Z,93839.91
2022-12-29T17:45:26.395Z,93852.16
2022-12-29T17:47:53.124Z,93846.34
2022-12-29T17:50:24.273Z,93857.34
2022-12-29T17:53:00.606Z,93855.47
2022-12-29T17:55:34.632Z,93862.38
2022-12-29T17:58:28.017Z,93855.47
2022-12-29T18:01:00.390Z,93860.81
2022-12-29T18:03:31.672Z,93857.69
2022-12-29T18:05:58.531Z,93857.69
2022-12-29T18:08:25.214Z,93863.66
2022-12-29T18:10:54.012Z,93866.00
2022-12-29T18:13:33.563Z,93866.16
2022-12-29T18:16:06.085Z,93865.03
2022-12-29T18:18:32.760Z,93865.03
2022-12-29T18:21:00.121Z,93864.41
2022-12-29T18:23:32.187Z,93857.97
2022-12-29T18:26:08.008Z,93856.41
2022-12-29T18:28:34.619Z,93852.16
2022-12-29T18:31:02.147Z,93854.97
2022-12-29T18:33:29.907Z,93855.28
2022-12-29T18:36:02.194Z,93862.19
2022-12-29T18:38:29.773Z,93858.44
2022-12-29T18:40:58.222Z,93860.63
2022-12-29T18:43:25.276Z,93855.28
2022-12-29T18:45:51.957Z,93857.19
2022-12-29T18:48:20.183Z,93863.31
2022-12-29T18:50:49.910Z,93871.31
2022-12-29T18:53:18.236Z,93878.84
2022-12-29T18:55:45.054Z,93877.75
2022-12-29T18:58:11.957Z,93877.59
2022-12-29T19:00:38.987Z,93879.50
2022-12-29T19:03:06.185Z,93874.78
2022-12-29T19:05:38.895Z,93883.59
2022-12-29T19:08:07.176Z,93888.78
2022-12-29T19:10:34.638Z,93890.34
2022-12-29T19:13:01.846Z,93890.34
2022-12-29T19:15:28.426Z,93894.13
2022-12-29T19:18:32.972Z,93893.34
2022-12-29T19:20:45.153Z,93897.09
2022-12-29T19:23:14.242Z,93896.78
2022-12-29T19:25:41.418Z,93893.69
2022-12-29T19:28:15.894Z,93895.22
2022-12-29T19:30:42.496Z,93887.56
2022-12-29T19:33:10.445Z,93892.13
2022-12-29T19:35:37.748Z,93896.34
2022-12-29T19:38:04.642Z,93892.44
2022-12-29T19:40:31.410Z,93900.44
2022-12-29T19:42:58.067Z,93906.25
2022-12-29T19:45:24.690Z,93900.00
2022-12-29T19:47:53.032Z,93905.03
2022-12-29T19:50:19.773Z,93897.22
2022-12-29T19:52:46.415Z,93897.53
2022-12-29T19:55:17.369Z,93899.09
2022-12-29T19:57:45.771Z,93896.28
2022-12-29T20:00:13.800Z,93899.72
2022-12-29T20:02:41.025Z,93902.88
2022-12-29T20:05:08.546Z,93906.00
2022-12-29T20:07:35.832Z,93903.03
2022-12-29T20:10:04.072Z,93909.25
2022-12-29T20:12:31.044Z,93911.16
2022-12-29T20:14:57.740Z,93907.56
2022-12-29T20:17:54.037Z,93916.53
2022-12-29T20:20:11.290Z,93918.41
2022-12-29T20:22:37.939Z,93916.56
2022-12-29T20:25:42.968Z,93925.19
2022-12-29T20:27:51.521Z,93925.84
2022-12-29T20:30:19.357Z,93925.34
2022-12-29T20:32:46.183Z,93917.66
2022-12-29T20:35:13.048Z,93921.13
2022-12-29T20:37:39.676Z,93919.88
2022-12-29T20:40:08.706Z,93920.97
2022-12-29T20:42:35.370Z,93925.53
2022-12-29T20:45:01.983Z,93923.81
2022-12-29T20:47:28.669Z,93916.75
2022-12-29T20:49:55.361Z,93919.56
2022-12-29T20:52:22.335Z,93927.13
2022-12-29T20:54:49.016Z,93924.75
2022-12-29T20:57:15.700Z,93923.97
2022-12-29T20:59:42.940Z,93916.28
2022-12-29T21:02:23.630Z,93936.53
2022-12-29T21:05:22.734Z,93935.88
2022-12-29T21:07:37.016Z,93927.25
2022-12-29T21:10:03.902Z,93938.06
2022-12-29T21:12:30.605Z,93925.41
2022-12-29T21:14:57.291Z,93930.72
2022-12-29T21:17:23.936Z,93946.06
2022-12-29T21:19:50.601Z,93945.47
2022-12-29T21:22:17.259Z,93954.88
2022-12-29T21:24:43.902Z,93958.28
2022-12-29T21:27:10.541Z,93965.66
2022-12-29T21:29:37.144Z,93972.25
2022-12-29T21:32:06.824Z,93968.16
2022-12-29T21:34:34.794Z,93971.56
2022-12-29T21:37:01.903Z,93967.97
2022-12-29T21:39:28.544Z,93997.38
2022-12-29T21:42:00.421Z,93997.16
2022-12-29T21:44:46.002Z,93998.53
2022-12-29T21:47:13.106Z,94004.00
2022-12-29T21:49:39.700Z,94005.69
2022-12-29T21:52:06.436Z,94007.56
2022-12-29T21:54:51.743Z,94011.03
2022-12-29T21:57:37.598Z,94013.22
2022-12-29T22:00:28.624Z,94014.13
2022-12-29T22:03:20.397Z,94022.09
2022-12-29T22:06:08.660Z,94025.84
2022-12-29T22:08:53.889Z,94029.31
2022-12-29T22:11:39.166Z,94031.78
2022-12-29T22:14:06.466Z,94040.97
2022-12-29T22:16:33.384Z,94038.66
2022-12-29T22:19:00.066Z,94040.81
2022-12-29T22:21:26.837Z,94036.59
2022-12-29T22:23:53.455Z,94031.56
2022-12-29T22:26:20.189Z,94043.31
2022-12-29T22:28:48.032Z,94033.44
2022-12-29T22:31:27.585Z,94044.22
2022-12-29T22:33:59.331Z,94051.09
2022-12-29T22:36:27.470Z,94046.25
2022-12-29T22:38:54.333Z,94035.25
2022-12-29T22:41:21.533Z,94044.13
2022-12-29T22:43:48.333Z,94052.88
2022-12-29T22:46:15.113Z,94058.78
2022-12-29T22:48:41.762Z,94058.13
2022-12-29T22:51:08.364Z,94042.28
2022-12-29T22:53:35.608Z,94054.63
2022-12-29T22:56:08.691Z,94054.91
2022-12-29T22:58:39.013Z,94046.16
2022-12-29T23:01:05.735Z,94039.75
2022-12-29T23:03:32.510Z,94039.25
2022-12-29T23:06:00.879Z,94039.44
2022-12-29T23:08:30.965Z,94038.03
2022-12-29T23:10:57.593Z,94037.94
2022-12-29T23:13:24.312Z,94036.34
2022-12-29T23:15:51.043Z,94034.19
2022-12-29T23:18:18.030Z,94035.75
2022-12-29T23:20:45.119Z,94034.66
2022-12-29T23:23:12.141Z,94034.25
2022-12-29T23:25:39.818Z,94033.56
2022-12-29T23:28:08.723Z,94043.91
2022-12-29T23:30:35.641Z,94047.34
2022-12-29T23:33:02.419Z,94043.63
2022-12-29T23:35:29.147Z,94049.13
2022-12-29T23:37:55.983Z,94058.66
2022-12-29T23:40:22.760Z,94057.78
2022-12-29T23:42:49.463Z,94054.44
2022-12-29T23:45:16.233Z,94059.94
2022-12-29T23:47:42.851Z,94056.19
2022-12-29T23:50:09.461Z,94064.63
2022-12-29T23:52:36.291Z,94065.13
2022-12-29T23:55:03.260Z,94070.44
2022-12-29T23:57:30.301Z,94070.16
2022-12-29T23:59:56.913Z,94076.56
